createdAt,value
2022-10-01T00:02:01.039Z,95852.25
2022-10-01T00:04:47.184Z,95857.53
2022-10-01T00:07:43.933Z,95864.81
2022-10-01T00:10:31.411Z,95857.44
2022-10-01T00:13:17.439Z,95893.13
2022-10-01T00:16:11.306Z,95854.59
2022-10-01T00:18:58.023Z,95869.84
2022-10-01T00:21:44.052Z,95860.50
2022-10-01T00:24:29.814Z,95847.50
2022-10-01T00:27:15.857Z,95835.91
2022-10-01T00:30:04.179Z,95874.72
2022-10-01T00:32:54.101Z,95869.44
2022-10-01T00:35:39.876Z,95891.63
2022-10-01T00:38:25.958Z,95885.19
2022-10-01T00:41:12.149Z,95887.91
2022-10-01T00:44:20.438Z,95868.41
2022-10-01T00:47:27.001Z,95887.16
2022-10-01T00:50:28.321Z,95885.41
2022-10-01T00:53:14.299Z,95880.25
2022-10-01T00:56:00.164Z,95866.38
2022-10-01T00:58:46.095Z,95881.28
2022-10-01T01:01:33.346Z,95872.72
2022-10-01T01:04:19.668Z,95876.47
2022-10-01T01:07:07.091Z,95877.53
2022-10-01T01:09:53.564Z,95869.63
2022-10-01T01:13:04.310Z,95855.78
2022-10-01T01:16:03.649Z,95870.00
2022-10-01T01:19:02.395Z,95860.28
2022-10-01T01:21:56.629Z,95864.84
2022-10-01T01:24:59.824Z,95867.16
2022-10-01T01:28:17.821Z,95886.09
2022-10-01T01:31:08.131Z,95861.34
2022-10-01T01:33:55.698Z,95860.75
2022-10-01T01:36:46.035Z,95860.44
2022-10-01T01:39:33.140Z,95862.56
2022-10-01T01:42:24.135Z,95870.25
2022-10-01T01:45:16.002Z,95852.19
2022-10-01T01:48:02.770Z,95855.50
2022-10-01T01:51:10.600Z,95851.34
2022-10-01T01:53:57.118Z,95859.47
2022-10-01T01:56:43.213Z,95852.19
2022-10-01T01:59:29.153Z,95847.25
2022-10-01T02:02:19.310Z,95849.56
2022-10-01T02:05:12.254Z,95871.63
2022-10-01T02:08:26.559Z,95892.50
2022-10-01T02:11:26.228Z,95899.31
2022-10-01T02:14:28.747Z,95889.22
2022-10-01T02:17:21.656Z,95889.97
2022-10-01T02:20:10.140Z,95882.78
2022-10-01T02:23:15.721Z,95873.59
2022-10-01T02:26:19.684Z,95885.63
2022-10-01T02:29:11.376Z,95874.41
2022-10-01T02:31:57.500Z,95869.22
2022-10-01T02:34:44.645Z,95874.16
2022-10-01T02:37:30.474Z,95872.28
2022-10-01T02:40:19.672Z,95860.88
2022-10-01T02:43:16.460Z,95861.31
2022-10-01T02:46:28.450Z,95854.84
2022-10-01T02:49:15.117Z,95841.94
2022-10-01T02:52:16.458Z,95820.44
2022-10-01T02:55:08.721Z,95833.84
2022-10-01T02:57:57.892Z,95836.16
2022-10-01T03:00:44.104Z,95850.09
2022-10-01T03:03:32.416Z,95874.41
2022-10-01T03:06:18.448Z,95885.22
2022-10-01T03:09:04.282Z,95876.31
2022-10-01T03:11:50.143Z,95886.44
2022-10-01T03:14:36.258Z,95902.19
2022-10-01T03:17:22.446Z,95911.38
2022-10-01T03:20:09.003Z,95903.47
2022-10-01T03:22:55.129Z,95896.59
2022-10-01T03:25:41.203Z,95888.84
2022-10-01T03:28:27.082Z,95866.84
2022-10-01T03:31:12.798Z,95860.59
2022-10-01T03:34:00.428Z,95864.50
2022-10-01T03:36:47.068Z,95861.78
2022-10-01T03:39:33.006Z,95882.88
2022-10-01T03:42:19.127Z,95874.00
2022-10-01T03:45:04.961Z,95893.91
2022-10-01T03:47:53.899Z,95887.13
2022-10-01T03:50:39.716Z,95911.19
2022-10-01T03:53:27.330Z,95919.06
2022-10-01T03:56:13.918Z,95925.50
2022-10-01T03:59:00.101Z,95932.09
2022-10-01T04:01:46.006Z,95924.44
2022-10-01T04:04:32.102Z,95914.47
2022-10-01T04:07:17.925Z,95913.00
2022-10-01T04:10:04.292Z,95922.56
2022-10-01T04:12:50.193Z,95920.09
2022-10-01T04:15:36.147Z,95906.56
2022-10-01T04:18:22.024Z,95873.59
2022-10-01T04:21:07.917Z,95890.56
2022-10-01T04:23:54.111Z,95893.06
2022-10-01T04:26:40.398Z,95883.25
2022-10-01T04:29:26.426Z,95884.81
2022-10-01T04:32:12.193Z,95906.19
2022-10-01T04:34:58.174Z,95880.06
2022-10-01T04:37:43.992Z,95874.22
2022-10-01T04:40:31.021Z,95884.78
2022-10-01T04:43:17.104Z,95862.19
2022-10-01T04:46:03.290Z,95879.81
2022-10-01T04:48:49.524Z,95873.00
2022-10-01T04:51:35.647Z,95864.50
2022-10-01T04:54:21.781Z,95867.44
2022-10-01T04:57:07.686Z,95875.88
2022-10-01T04:59:53.579Z,95879.00
2022-10-01T05:02:39.708Z,95898.56
2022-10-01T05:05:28.150Z,95904.00
2022-10-01T05:08:14.449Z,95905.22
2022-10-01T05:11:00.645Z,95920.19
2022-10-01T05:13:46.678Z,95916.28
2022-10-01T05:16:32.716Z,95907.72
2022-10-01T05:19:18.586Z,95921.63
2022-10-01T05:22:04.403Z,95926.81
2022-10-01T05:24:50.539Z,95919.75
2022-10-01T05:27:37.981Z,95929.72
2022-10-01T05:30:24.524Z,95959.63
2022-10-01T05:33:10.806Z,95946.00
2022-10-01T05:35:59.823Z,95970.13
2022-10-01T05:38:48.421Z,95952.25
2022-10-01T05:41:35.040Z,95982.56
2022-10-01T05:44:22.398Z,95962.97
2022-10-01T05:47:08.410Z,95950.34
2022-10-01T05:49:54.277Z,95967.09
2022-10-01T05:52:42.549Z,95958.97
2022-10-01T05:55:34.915Z,95962.31
2022-10-01T05:58:20.911Z,95960.66
2022-10-01T06:01:07.064Z,95955.50
2022-10-01T06:03:53.103Z,95959.44
2022-10-01T06:06:39.377Z,95952.75
2022-10-01T06:09:25.403Z,95964.13
2022-10-01T06:12:11.239Z,95962.88
2022-10-01T06:14:57.147Z,95950.38
2022-10-01T06:17:45.778Z,95935.66
2022-10-01T06:20:31.857Z,95945.31
2022-10-01T06:23:17.850Z,95955.72
2022-10-01T06:26:08.280Z,95936.59
2022-10-01T06:28:54.239Z,95934.28
2022-10-01T06:31:40.266Z,95934.91
2022-10-01T06:34:26.579Z,95918.47
2022-10-01T06:37:12.498Z,95922.81
2022-10-01T06:39:58.296Z,95935.06
2022-10-01T06:42:50.310Z,95918.66
2022-10-01T06:45:43.363Z,95934.63
2022-10-01T06:48:31.422Z,95938.53
2022-10-01T06:51:37.249Z,95943.13
2022-10-01T06:54:23.136Z,95923.56
2022-10-01T06:57:09.054Z,95897.56
2022-10-01T06:59:55.568Z,95911.50
2022-10-01T07:02:41.949Z,95899.44
2022-10-01T07:05:28.341Z,95910.19
2022-10-01T07:08:14.929Z,95928.28
2022-10-01T07:11:05.099Z,95939.03
2022-10-01T07:13:54.581Z,95925.25
2022-10-01T07:16:40.991Z,95918.44
2022-10-01T07:19:27.232Z,95949.84
2022-10-01T07:22:13.427Z,95954.44
2022-10-01T07:24:59.368Z,95953.44
2022-10-01T07:27:45.248Z,95953.50
2022-10-01T07:30:32.130Z,95958.78
2022-10-01T07:33:18.914Z,95981.91
2022-10-01T07:36:07.766Z,95970.25
2022-10-01T07:38:53.825Z,95985.31
2022-10-01T07:41:40.214Z,95989.44
2022-10-01T07:44:27.831Z,96006.88
2022-10-01T07:47:15.130Z,96021.06
2022-10-01T07:50:01.325Z,96017.28
2022-10-01T07:52:53.954Z,96026.91
2022-10-01T07:55:40.201Z,96029.34
2022-10-01T07:58:26.595Z,96049.28
2022-10-01T08:01:12.814Z,96047.16
2022-10-01T08:03:58.637Z,96015.13
2022-10-01T08:06:45.926Z,96014.13
2022-10-01T08:09:31.949Z,96025.13
2022-10-01T08:12:19.672Z,96041.63
2022-10-01T08:15:10.292Z,96018.44
2022-10-01T08:17:56.339Z,96014.44
2022-10-01T08:20:42.487Z,96003.16
2022-10-01T08:23:29.804Z,95988.41
2022-10-01T08:26:15.658Z,95956.88
2022-10-01T08:29:01.684Z,95940.63
2022-10-01T08:31:47.645Z,95919.75
2022-10-01T08:34:33.702Z,95927.75
2022-10-01T08:37:19.660Z,95922.47
2022-10-01T08:40:06.119Z,95919.56
2022-10-01T08:43:00.109Z,95950.06
2022-10-01T08:45:51.571Z,95917.84
2022-10-01T08:48:57.504Z,95980.47
2022-10-01T08:52:00.370Z,95988.34
2022-10-01T08:54:54.069Z,95990.91
2022-10-01T08:57:47.006Z,95975.00
2022-10-01T09:00:36.228Z,95959.03
2022-10-01T09:03:22.622Z,95947.59
2022-10-01T09:06:27.046Z,95965.78
2022-10-01T09:09:32.977Z,95969.06
2022-10-01T09:12:25.051Z,95974.09
2022-10-01T09:15:18.267Z,95989.75
2022-10-01T09:18:07.867Z,95970.09
2022-10-01T09:21:00.396Z,95977.22
2022-10-01T09:24:12.495Z,95957.28
2022-10-01T09:26:58.333Z,95972.47
2022-10-01T09:30:14.366Z,95957.81
2022-10-01T09:33:09.181Z,95956.41
2022-10-01T09:36:13.207Z,95974.63
2022-10-01T09:39:13.610Z,95925.38
2022-10-01T09:41:59.800Z,95962.91
2022-10-01T09:44:47.677Z,95951.34
2022-10-01T09:47:34.397Z,95921.59
2022-10-01T09:50:41.574Z,95915.69
2022-10-01T09:53:42.468Z,95894.44
2022-10-01T09:56:31.144Z,95906.13
2022-10-01T09:59:29.029Z,95890.59
2022-10-01T10:02:20.027Z,95894.41
2022-10-01T10:05:09.399Z,95895.81
2022-10-01T10:08:02.646Z,95894.25
2022-10-01T10:10:51.539Z,95894.72
2022-10-01T10:13:41.551Z,95866.56
2022-10-01T10:16:29.955Z,95847.16
2022-10-01T10:19:27.650Z,95824.34
2022-10-01T10:22:25.057Z,95833.00
2022-10-01T10:25:17.672Z,95819.91
2022-10-01T10:28:05.169Z,95793.13
2022-10-01T10:30:53.872Z,95808.78
2022-10-01T10:34:05.832Z,95795.13
2022-10-01T10:36:57.849Z,95786.56
2022-10-01T10:39:48.021Z,95774.50
2022-10-01T10:42:38.286Z,95771.66
2022-10-01T10:45:34.033Z,95777.38
2022-10-01T10:48:20.068Z,95780.38
2022-10-01T10:51:06.436Z,95759.34
2022-10-01T10:53:52.433Z,95787.63
2022-10-01T10:56:38.591Z,95762.59
2022-10-01T10:59:24.653Z,95778.03
2022-10-01T11:02:16.972Z,95771.38
2022-10-01T11:05:19.330Z,95752.38
2022-10-01T11:08:07.232Z,95740.59
2022-10-01T11:10:59.326Z,95725.75
2022-10-01T11:13:51.220Z,95719.19
2022-10-01T11:17:00.480Z,95719.38
2022-10-01T11:19:49.344Z,95689.75
2022-10-01T11:23:15.788Z,95714.03
2022-10-01T11:26:20.201Z,95712.66
2022-10-01T11:29:39.397Z,95703.28
2022-10-01T11:32:34.138Z,95698.72
2022-10-01T11:35:35.494Z,95733.84
2022-10-01T11:38:30.798Z,95725.66
2022-10-01T11:41:35.437Z,95710.03
2022-10-01T11:44:32.804Z,95683.50
2022-10-01T11:47:27.833Z,95663.13
2022-10-01T11:50:25.406Z,95688.91
2022-10-01T11:53:20.768Z,95702.75
2022-10-01T11:56:33.689Z,95716.94
2022-10-01T11:59:36.595Z,95730.59
2022-10-01T12:02:44.229Z,95741.16
2022-10-01T12:05:32.052Z,95752.50
2022-10-01T12:08:24.240Z,95761.38
2022-10-01T12:11:21.276Z,95771.81
2022-10-01T12:14:20.927Z,95756.59
2022-10-01T12:17:17.981Z,95730.97
2022-10-01T12:20:08.767Z,95711.47
2022-10-01T12:22:56.303Z,95702.88
2022-10-01T12:25:49.157Z,95704.16
2022-10-01T12:28:52.027Z,95691.34
2022-10-01T12:31:55.610Z,95688.25
2022-10-01T12:34:55.988Z,95654.38
2022-10-01T12:37:45.908Z,95638.13
2022-10-01T12:40:53.616Z,95659.28
2022-10-01T12:43:54.265Z,95638.75
2022-10-01T12:47:12.527Z,95649.06
2022-10-01T12:50:26.447Z,95649.06
2022-10-01T12:53:16.543Z,95665.72
2022-10-01T12:56:17.232Z,95638.97
2022-10-01T12:59:28.284Z,95616.03
2022-10-01T13:02:33.594Z,95653.59
2022-10-01T13:05:28.193Z,95647.84
2022-10-01T13:08:17.285Z,95635.38
2022-10-01T13:11:09.492Z,95646.25
2022-10-01T13:13:56.940Z,95681.66
2022-10-01T13:17:12.508Z,95649.78
2022-10-01T13:20:07.098Z,95666.38
2022-10-01T13:23:01.226Z,95641.25
2022-10-01T13:26:08.727Z,95606.34
2022-10-01T13:29:03.357Z,95611.94
2022-10-01T13:31:59.686Z,95620.44
2022-10-01T13:34:46.539Z,95596.63
2022-10-01T13:37:39.979Z,95580.28
2022-10-01T13:40:34.215Z,95571.03
2022-10-01T13:43:21.666Z,95571.53
2022-10-01T13:46:09.920Z,95571.47
2022-10-01T13:48:56.293Z,95545.97
2022-10-01T13:51:44.038Z,95548.91
2022-10-01T13:54:47.027Z,95560.16
2022-10-01T13:57:37.071Z,95571.13
2022-10-01T14:00:23.819Z,95574.34
2022-10-01T14:03:31.314Z,95576.84
2022-10-01T14:06:23.823Z,95557.41
2022-10-01T14:09:29.169Z,95533.28
2022-10-01T14:15:52.400Z,95549.91
2022-10-01T14:18:42.919Z,95556.53
2022-10-01T14:21:48.496Z,95542.03
2022-10-01T14:24:46.437Z,95521.13
2022-10-01T14:27:57.225Z,95533.16
2022-10-01T14:30:58.489Z,95529.84
2022-10-01T14:33:58.033Z,95533.00
2022-10-01T14:36:52.744Z,95507.75
2022-10-01T14:39:38.843Z,95509.56
2022-10-01T14:42:24.880Z,95479.34
2022-10-01T14:45:16.089Z,95450.44
2022-10-01T14:48:06.156Z,95444.53
2022-10-01T14:50:57.726Z,95446.50
2022-10-01T14:53:43.827Z,95469.88
2022-10-01T14:56:30.059Z,95464.31
2022-10-01T14:59:36.398Z,95461.38
2022-10-01T15:02:24.475Z,95463.09
2022-10-01T15:05:41.641Z,95458.25
2022-10-01T15:08:41.863Z,95460.16
2022-10-01T15:11:31.524Z,95464.16
2022-10-01T15:14:24.416Z,95467.13
2022-10-01T15:17:25.284Z,95457.38
2022-10-01T15:20:12.515Z,95457.84
2022-10-01T15:23:01.467Z,95453.00
2022-10-01T15:25:47.861Z,95459.59
2022-10-01T15:28:36.105Z,95456.63
2022-10-01T15:31:22.478Z,95444.84
2022-10-01T15:34:13.221Z,95434.50
2022-10-01T15:37:02.450Z,95429.41
2022-10-01T15:39:51.797Z,95432.97
2022-10-01T15:42:38.123Z,95430.00
2022-10-01T15:45:26.019Z,95432.09
2022-10-01T15:48:41.306Z,95433.75
2022-10-01T15:51:28.394Z,95431.00
2022-10-01T15:54:15.610Z,95426.09
2022-10-01T15:57:02.954Z,95406.94
2022-10-01T15:59:50.840Z,95396.19
2022-10-01T16:02:36.823Z,95406.44
2022-10-01T16:05:26.400Z,95427.50
2022-10-01T16:08:21.415Z,95427.81
2022-10-01T16:11:13.239Z,95431.72
2022-10-01T16:14:21.297Z,95425.28
2022-10-01T16:17:19.864Z,95421.47
2022-10-01T16:20:15.111Z,95418.88
2022-10-01T16:23:34.096Z,95418.28
2022-10-01T16:26:32.347Z,95401.41
2022-10-01T16:29:21.730Z,95399.03
2022-10-01T16:32:11.431Z,95395.13
2022-10-01T16:35:17.265Z,95403.78
2022-10-01T16:38:06.795Z,95408.53
2022-10-01T16:40:53.081Z,95416.69
2022-10-01T16:43:39.221Z,95422.94
2022-10-01T16:46:25.508Z,95403.84
2022-10-01T16:49:14.149Z,95389.91
2022-10-01T16:52:00.166Z,95386.63
2022-10-01T16:54:47.461Z,95389.97
2022-10-01T16:57:33.506Z,95387.75
2022-10-01T17:00:21.206Z,95389.38
2022-10-01T17:03:12.265Z,95374.41
2022-10-01T17:05:58.444Z,95387.19
2022-10-01T17:08:44.372Z,95391.47
2022-10-01T17:11:30.200Z,95404.81
2022-10-01T17:14:18.180Z,95391.94
2022-10-01T17:17:04.053Z,95380.44
2022-10-01T17:19:49.998Z,95385.09
2022-10-01T17:22:36.327Z,95375.56
2022-10-01T17:25:25.384Z,95355.44
2022-10-01T17:28:14.909Z,95351.91
2022-10-01T17:31:00.953Z,95347.25
2022-10-01T17:33:47.008Z,95362.44
2022-10-01T17:36:35.329Z,95352.63
2022-10-01T17:39:21.504Z,95338.03
2022-10-01T17:42:07.801Z,95358.50
2022-10-01T17:44:54.885Z,95378.44
2022-10-01T17:47:48.788Z,95363.91
2022-10-01T17:50:35.531Z,95353.28
2022-10-01T17:53:21.791Z,95345.38
2022-10-01T17:56:10.238Z,95354.94
2022-10-01T17:58:56.510Z,95360.59
2022-10-01T18:01:42.359Z,95355.66
2022-10-01T18:04:28.174Z,95355.06
2022-10-01T18:07:14.410Z,95356.13
2022-10-01T18:10:00.704Z,95357.09
2022-10-01T18:12:46.920Z,95369.38
2022-10-01T18:15:32.781Z,95363.41
2022-10-01T18:19:51.424Z,95353.03
2022-10-01T18:21:25.034Z,95366.63
2022-10-01T18:24:10.960Z,95363.47
2022-10-01T18:26:57.072Z,95396.75
2022-10-01T18:29:43.345Z,95406.78
2022-10-01T18:32:37.758Z,95398.25
2022-10-01T18:35:34.453Z,95395.16
2022-10-01T18:38:25.548Z,95389.78
2022-10-01T18:41:29.397Z,95394.16
2022-10-01T18:44:20.309Z,95369.06
2022-10-01T18:47:09.598Z,95391.75
2022-10-01T18:50:12.177Z,95393.31
2022-10-01T18:53:08.020Z,95400.94
2022-10-01T18:56:04.288Z,95412.69
2022-10-01T18:59:17.888Z,95399.53
2022-10-01T19:02:22.242Z,95378.19
2022-10-01T19:05:36.189Z,95398.91
2022-10-01T19:08:37.254Z,95407.81
2022-10-01T19:11:26.410Z,95415.22
2022-10-01T19:14:40.552Z,95418.38
2022-10-01T19:18:17.957Z,95415.31
2022-10-01T19:21:58.551Z,95414.44
2022-10-01T19:24:59.431Z,95405.53
2022-10-01T19:28:09.773Z,95404.38
2022-10-01T19:31:14.239Z,95393.03
2022-10-01T19:34:15.087Z,95376.03
2022-10-01T19:37:05.508Z,95374.50
2022-10-01T19:39:52.789Z,95376.41
2022-10-01T19:42:40.512Z,95356.81
2022-10-01T19:45:33.737Z,95356.00
2022-10-01T19:48:55.163Z,95338.72
2022-10-01T19:51:46.136Z,95335.22
2022-10-01T19:54:34.716Z,95329.56
2022-10-01T19:57:27.222Z,95304.63
2022-10-01T20:00:19.745Z,95336.84
2022-10-01T20:03:14.549Z,95339.34
2022-10-01T20:06:05.865Z,95323.97
2022-10-01T20:08:56.139Z,95326.72
2022-10-01T20:12:12.285Z,95321.53
2022-10-01T20:15:36.334Z,95330.97
2022-10-01T20:18:38.509Z,95323.03
2022-10-01T20:21:45.500Z,95329.28
2022-10-01T20:25:00.560Z,95339.59
2022-10-01T20:27:52.287Z,95321.09
2022-10-01T20:30:48.578Z,95349.16
2022-10-01T20:33:43.421Z,95362.97
2022-10-01T20:36:40.489Z,95383.31
2022-10-01T20:39:32.794Z,95396.22
2022-10-01T20:42:24.221Z,95407.97
2022-10-01T20:45:21.465Z,95420.41
2022-10-01T20:48:14.338Z,95420.09
2022-10-01T20:51:03.937Z,95422.31
2022-10-01T20:54:03.529Z,95436.41
2022-10-01T20:57:20.522Z,95388.13
2022-10-01T21:00:28.762Z,95434.91
2022-10-01T21:03:32.568Z,95459.91
2022-10-01T21:06:21.881Z,95469.31
2022-10-01T21:09:18.899Z,95486.50
2022-10-01T21:12:15.237Z,95476.94
2022-10-01T21:15:01.822Z,95471.25
2022-10-01T21:18:12.006Z,95474.56
2022-10-01T21:21:09.850Z,95490.34
2022-10-01T21:24:16.221Z,95464.78
2022-10-01T21:27:11.347Z,95479.25
2022-10-01T21:30:07.480Z,95469.06
2022-10-01T21:33:47.349Z,95490.84
2022-10-01T21:36:54.062Z,95478.09
2022-10-01T21:39:53.605Z,95474.56
2022-10-01T21:42:51.423Z,95463.56
2022-10-01T21:46:03.946Z,95470.63
2022-10-01T21:48:59.006Z,95468.16
2022-10-01T21:52:15.177Z,95460.06
2022-10-01T21:55:20.442Z,95478.16
2022-10-01T21:58:29.645Z,95461.22
2022-10-01T22:01:17.791Z,95485.56
2022-10-01T22:04:45.941Z,95468.28
2022-10-01T22:07:35.959Z,95462.94
2022-10-01T22:10:29.153Z,95455.25
2022-10-01T22:13:20.250Z,95461.31
2022-10-01T22:16:13.772Z,95462.38
2022-10-01T22:19:11.328Z,95444.28
2022-10-01T22:22:09.628Z,95430.72
2022-10-01T22:24:58.993Z,95434.34
2022-10-01T22:28:02.379Z,95414.31
2022-10-01T22:30:50.081Z,95423.59
2022-10-01T22:33:44.209Z,95416.81
2022-10-01T22:36:43.819Z,95410.69
2022-10-01T22:39:34.664Z,95421.53
2022-10-01T22:42:26.948Z,95408.56
2022-10-01T22:45:15.738Z,95412.75
2022-10-01T22:48:14.585Z,95415.28
2022-10-01T22:51:12.659Z,95417.06
2022-10-01T22:54:09.151Z,95415.59
2022-10-01T22:57:07.484Z,95415.53
2022-10-01T23:00:05.701Z,95420.22
2022-10-01T23:02:51.908Z,95418.00
2022-10-01T23:05:41.200Z,95419.41
2022-10-01T23:08:48.518Z,95426.88
2022-10-01T23:11:46.746Z,95419.13
2022-10-01T23:15:04.568Z,95440.44
2022-10-01T23:17:50.409Z,95442.91
2022-10-01T23:21:01.216Z,95418.84
2022-10-01T23:24:34.080Z,95458.16
2022-10-01T23:27:30.329Z,95478.53
2022-10-01T23:30:18.425Z,95480.41
2022-10-01T23:33:32.051Z,95499.88
2022-10-01T23:36:23.975Z,95502.00
2022-10-01T23:39:28.926Z,95499.47
2022-10-01T23:42:36.658Z,95510.91
2022-10-01T23:45:34.674Z,95499.47
2022-10-01T23:48:35.073Z,95512.56
2022-10-01T23:51:56.548Z,95526.81
2022-10-01T23:54:48.276Z,95528.34
2022-10-01T23:57:38.002Z,95512.72
